Time;durP1;ratioP1;P1;durP2;ratioP2;P2;SDS_P1;SDS_P2;PMS_P1;PMS_P2;Temp;Humidity;BMP_temperature;BMP_pressure;BME280_temperature;BME280_humidity;BME280_pressure;Samples;Min_cycle;Max_cycle;Signal;HPM_P1;HPM_P2
2023/01/16 00:02:02;;;;;;;2.80;2.03;;;5.40;99.90;;;;;;5034226;28;20202;-47
2023/01/16 00:04:29;;;;;;;5.30;2.00;;;5.40;99.90;;;;;;5024708;28;20222;-52
2023/01/16 00:06:57;;;;;;;4.13;2.23;;;5.40;99.90;;;;;;5028201;28;20734;-49
2023/01/16 00:09:24;;;;;;;2.73;2.10;;;5.40;99.90;;;;;;5022767;28;20825;-48
2023/01/16 00:11:51;;;;;;;2.67;2.40;;;5.40;99.90;;;;;;5026241;28;20254;-53
2023/01/16 00:14:18;;;;;;;2.70;2.30;;;5.40;99.90;;;;;;5008393;28;21468;-51
2023/01/16 00:16:44;;;;;;;4.90;2.30;;;5.50;99.90;;;;;;5033697;28;20200;-51
2023/01/16 00:19:11;;;;;;;2.47;2.20;;;5.40;99.90;;;;;;5033558;28;20641;-45
2023/01/16 00:21:38;;;;;;;4.47;2.50;;;5.50;99.90;;;;;;5025832;28;20211;-55
2023/01/16 00:24:07;;;;;;;2.47;2.10;;;5.50;99.90;;;;;;5039088;28;20238;-45
2023/01/16 00:26:34;;;;;;;4.87;2.90;;;5.50;99.90;;;;;;5032387;28;20931;-53
2023/01/16 00:29:02;;;;;;;3.70;2.17;;;5.50;99.90;;;;;;5025461;28;20212;-46
2023/01/16 00:31:28;;;;;;;3.40;2.77;;;5.50;99.90;;;;;;5020079;28;20282;-51
2023/01/16 00:33:55;;;;;;;3.17;2.70;;;5.50;99.90;;;;;;5034666;28;20266;-49
2023/01/16 00:36:22;;;;;;;4.17;3.10;;;5.50;99.90;;;;;;5018072;28;20206;-51
2023/01/16 00:38:49;;;;;;;6.40;2.87;;;5.50;99.90;;;;;;5037352;28;20229;-53
2023/01/16 00:41:17;;;;;;;4.73;3.40;;;5.50;99.90;;;;;;5032064;28;20680;-43
2023/01/16 00:43:44;;;;;;;4.80;4.37;;;5.50;99.90;;;;;;5030802;28;20196;-51
2023/01/16 00:46:11;;;;;;;6.03;3.90;;;5.60;99.90;;;;;;5028157;28;20199;-47
2023/01/16 00:48:37;;;;;;;5.13;4.47;;;5.60;99.90;;;;;;5028369;28;20255;-49
2023/01/16 00:51:04;;;;;;;4.63;4.23;;;5.50;99.90;;;;;;5028699;28;20204;-44
2023/01/16 00:53:32;;;;;;;4.90;4.30;;;5.60;99.90;;;;;;5029600;28;20196;-49
2023/01/16 00:55:58;;;;;;;6.57;5.00;;;5.60;99.90;;;;;;5038021;28;20257;-49
2023/01/16 00:58:26;;;;;;;5.70;4.40;;;5.60;99.90;;;;;;5022696;28;20392;-52
2023/01/16 01:00:53;;;;;;;6.90;4.40;;;5.60;99.90;;;;;;5026729;28;20606;-52
2023/01/16 01:03:20;;;;;;;5.57;4.53;;;5.60;99.90;;;;;;5015367;28;20903;-56
2023/01/16 01:05:47;;;;;;;9.30;4.50;;;5.60;99.90;;;;;;5031904;28;20204;-54
2023/01/16 01:08:13;;;;;;;8.27;4.37;;;5.60;99.90;;;;;;5028887;28;20820;-44
2023/01/16 01:10:40;;;;;;;4.73;4.33;;;5.60;99.90;;;;;;5031153;28;20601;-51
2023/01/16 01:13:07;;;;;;;6.43;4.33;;;5.60;99.90;;;;;;5023682;28;20211;-46
2023/01/16 01:15:36;;;;;;;7.23;4.17;;;5.60;99.90;;;;;;5024568;28;20212;-54
2023/01/16 01:18:02;;;;;;;5.13;3.90;;;5.60;99.90;;;;;;5017082;28;20603;-43
2023/01/16 01:20:29;;;;;;;4.50;4.10;;;5.60;99.90;;;;;;5023352;28;20237;-49
2023/01/16 01:22:56;;;;;;;6.10;4.03;;;5.60;99.90;;;;;;5035501;28;20204;-52
2023/01/16 01:25:23;;;;;;;4.20;3.60;;;5.60;99.90;;;;;;5035022;28;20938;-51
2023/01/16 01:27:51;;;;;;;4.13;3.60;;;5.60;99.90;;;;;;5025864;28;20258;-51
2023/01/16 01:30:17;;;;;;;4.33;2.93;;;5.60;99.90;;;;;;5022135;28;20790;-53
2023/01/16 01:32:46;;;;;;;5.43;3.03;;;5.60;99.90;;;;;;5038266;28;20670;-50
2023/01/16 01:35:12;;;;;;;3.20;2.73;;;5.60;99.90;;;;;;5022622;28;20730;-48
2023/01/16 01:37:39;;;;;;;2.87;2.37;;;5.60;99.90;;;;;;5028991;28;20274;-53
2023/01/16 01:40:07;;;;;;;3.20;2.50;;;5.60;99.90;;;;;;5024350;28;20227;-46
2023/01/16 01:42:47;;;;;;;4.30;1.93;;;5.60;99.90;;;;;;5024920;28;20282;-53
2023/01/16 01:45:20;;;;;;;3.37;1.70;;;5.60;99.90;;;;;;5037933;28;20276;-49
2023/01/16 01:47:54;;;;;;;2.00;1.80;;;5.60;99.90;;;;;;5042941;28;20203;-47
2023/01/16 01:50:31;;;;;;;4.30;1.70;;;5.60;99.90;;;;;;5021285;28;20681;-50
2023/01/16 01:53:02;;;;;;;1.63;1.50;;;5.60;99.90;;;;;;5026949;28;20207;-45
2023/01/16 01:55:29;;;;;;;3.57;1.77;;;5.60;99.90;;;;;;5027277;28;20227;-52
2023/01/16 01:57:59;;;;;;;3.23;1.77;;;5.60;99.90;;;;;;5021799;28;20204;-48
2023/01/16 02:00:28;;;;;;;7.20;1.93;;;5.60;99.90;;;;;;5025519;28;20206;-52
2023/01/16 02:02:59;;;;;;;8.70;2.23;;;5.60;99.90;;;;;;5022304;28;20598;-46
2023/01/16 02:05:31;;;;;;;4.03;1.87;;;5.70;99.90;;;;;;5014922;28;20203;-54
2023/01/16 02:08:00;;;;;;;5.10;1.83;;;5.70;99.90;;;;;;5029197;28;20234;-45
2023/01/16 02:10:33;;;;;;;2.60;1.47;;;5.60;99.90;;;;;;5026126;28;20690;-51
2023/01/16 02:13:01;;;;;;;3.60;1.67;;;5.60;99.90;;;;;;5020514;28;20196;-50
2023/01/16 02:15:29;;;;;;;1.97;1.77;;;5.60;99.90;;;;;;5024713;28;20278;-48
2023/01/16 02:20:53;;;;;;;2.60;2.00;;;5.60;99.90;;;;;;5014489;28;20200;-46
2023/01/16 02:24:03;;;;;;;3.63;1.97;;;5.60;99.90;;;;;;5026125;28;20384;-49
2023/01/16 02:26:55;;;;;;;2.47;2.27;;;5.60;99.90;;;;;;5019565;28;20792;-48
2023/01/16 02:29:38;;;;;;;6.03;2.27;;;5.60;99.90;;;;;;5037718;28;20712;-52
2023/01/16 02:32:17;;;;;;;2.87;1.93;;;5.60;99.90;;;;;;5039526;28;20207;-52
2023/01/16 02:34:58;;;;;;;3.20;1.97;;;5.60;99.90;;;;;;5042735;28;20211;-48
2023/01/16 02:37:35;;;;;;;2.17;1.97;;;5.60;99.90;;;;;;5021474;28;20250;-51
2023/01/16 02:40:11;;;;;;;3.53;2.27;;;5.60;99.90;;;;;;5020306;28;20219;-48
2023/01/16 02:42:45;;;;;;;2.13;1.97;;;5.50;99.90;;;;;;5023225;28;20242;-49
2023/01/16 02:45:19;;;;;;;5.13;1.87;;;5.60;99.90;;;;;;5020793;28;20220;-50
2023/01/16 02:47:55;;;;;;;4.17;1.90;;;5.60;99.90;;;;;;5023065;28;20191;-44
2023/01/16 02:50:27;;;;;;;2.07;1.80;;;5.50;99.90;;;;;;5028389;28;20195;-51
2023/01/16 02:53:00;;;;;;;1.53;1.43;;;5.50;99.90;;;;;;5019084;28;20215;-45
2023/01/16 02:55:32;;;;;;;2.33;1.53;;;5.50;99.90;;;;;;5026010;28;20218;-52
2023/01/16 02:58:02;;;;;;;2.47;1.60;;;5.50;99.90;;;;;;5019055;28;20200;-44
2023/01/16 03:00:29;;;;;;;2.57;1.27;;;5.50;99.90;;;;;;5024404;28;20200;-55
2023/01/16 03:02:58;;;;;;;4.50;2.10;;;5.50;99.90;;;;;;5020436;28;20235;-44
2023/01/16 03:05:25;;;;;;;4.10;1.60;;;5.40;99.90;;;;;;5023980;28;20207;-52
2023/01/16 03:08:26;;;;;;;1.77;1.10;;;5.40;99.90;;;;;;5012516;28;20208;-45
2023/01/16 03:11:23;;;;;;;3.57;1.10;;;5.40;99.90;;;;;;5029578;28;20212;-44
2023/01/16 03:13:59;;;;;;;1.40;1.07;;;5.30;99.90;;;;;;5000132;28;20224;-42
2023/01/16 03:16:31;;;;;;;3.30;1.70;;;5.20;99.90;;;;;;5024181;28;20318;-52
2023/01/16 03:19:13;;;;;;;3.33;1.20;;;5.20;99.90;;;;;;5024000;28;20290;-47
2023/01/16 03:21:48;;;;;;;2.73;1.27;;;5.20;99.90;;;;;;5030063;28;20203;-50
2023/01/16 03:24:27;;;;;;;1.10;0.90;;;5.20;99.90;;;;;;5008348;28;20588;-49
2023/01/16 03:27:01;;;;;;;3.97;1.23;;;5.20;99.90;;;;;;5021600;28;20697;-42
2023/01/16 03:29:33;;;;;;;3.17;1.30;;;5.20;99.90;;;;;;5024050;28;20227;-49
2023/01/16 03:32:06;;;;;;;3.90;1.13;;;5.20;99.90;;;;;;5019754;28;20209;-47
2023/01/16 03:34:41;;;;;;;1.30;1.10;;;5.20;99.90;;;;;;5023914;28;20196;-56
2023/01/16 03:37:12;;;;;;;3.43;1.00;;;5.20;99.90;;;;;;5020440;28;20191;-48
2023/01/16 03:39:42;;;;;;;2.77;1.17;;;5.20;99.90;;;;;;5014686;28;20223;-54
2023/01/16 03:42:13;;;;;;;1.90;1.00;;;5.20;99.90;;;;;;5029754;28;20191;-51
2023/01/16 03:44:47;;;;;;;1.60;0.80;;;5.20;99.90;;;;;;5020787;28;20231;-46
2023/01/16 03:47:18;;;;;;;4.10;1.53;;;5.20;99.90;;;;;;5021684;28;20195;-56
2023/01/16 03:49:52;;;;;;;3.10;1.20;;;5.20;99.90;;;;;;5022790;28;20251;-45
2023/01/16 03:52:22;;;;;;;1.67;1.47;;;5.30;99.90;;;;;;5022524;28;20196;-52
2023/01/16 03:54:53;;;;;;;0.97;0.93;;;5.20;99.90;;;;;;5019264;28;20214;-46
2023/01/16 03:57:24;;;;;;;3.13;1.30;;;5.20;99.90;;;;;;5021930;28;20212;-51
2023/01/16 03:59:53;;;;;;;5.13;1.13;;;5.20;99.90;;;;;;5022455;28;20223;-48
2023/01/16 04:02:27;;;;;;;2.10;1.30;;;5.10;99.90;;;;;;5022842;28;20307;-55
2023/01/16 04:05:01;;;;;;;5.60;1.30;;;5.10;99.90;;;;;;5021053;28;20203;-45
2023/01/16 04:07:34;;;;;;;2.13;1.00;;;5.10;99.90;;;;;;5023843;28;20215;-51
2023/01/16 04:10:06;;;;;;;2.73;1.50;;;5.00;99.90;;;;;;5005312;28;20223;-52
2023/01/16 04:12:37;;;;;;;2.50;1.00;;;5.00;99.90;;;;;;5024718;28;20669;-48
2023/01/16 04:15:08;;;;;;;4.07;1.10;;;5.00;99.90;;;;;;5018308;28;20223;-51
2023/01/16 04:17:36;;;;;;;2.43;1.30;;;4.90;99.90;;;;;;5023620;28;20300;-47
2023/01/16 04:20:06;;;;;;;2.87;1.37;;;4.90;99.90;;;;;;5019207;28;20223;-45
2023/01/16 04:22:34;;;;;;;5.80;1.40;;;4.90;99.90;;;;;;5023048;28;20294;-53
2023/01/16 04:25:03;;;;;;;3.37;1.20;;;4.90;99.90;;;;;;5010711;28;20206;-46
2023/01/16 04:27:30;;;;;;;6.53;1.20;;;5.00;99.90;;;;;;5038090;28;20210;-49
2023/01/16 04:29:57;;;;;;;5.50;1.33;;;5.00;99.90;;;;;;5018644;28;20227;-45
2023/01/16 04:32:25;;;;;;;3.47;1.47;;;5.00;99.90;;;;;;5026477;28;20208;-48
2023/01/16 04:34:52;;;;;;;3.33;1.00;;;5.00;99.90;;;;;;5024637;28;20203;-45
2023/01/16 04:37:19;;;;;;;2.73;1.30;;;5.00;99.90;;;;;;5024184;28;20203;-50
2023/01/16 04:39:47;;;;;;;6.80;1.23;;;5.10;99.90;;;;;;5025241;28;20713;-44
2023/01/16 04:42:14;;;;;;;4.53;1.07;;;5.10;99.90;;;;;;5013473;28;20206;-51
2023/01/16 04:44:41;;;;;;;1.63;0.83;;;5.10;99.90;;;;;;5033759;28;20201;-45
2023/01/16 04:47:08;;;;;;;1.43;1.33;;;5.10;99.90;;;;;;5025490;28;20207;-53
2023/01/16 04:49:35;;;;;;;3.17;1.07;;;5.10;99.90;;;;;;5025777;28;20216;-52
2023/01/16 04:52:03;;;;;;;5.60;1.13;;;5.20;99.90;;;;;;5022247;28;20199;-49
2023/01/16 04:54:31;;;;;;;1.37;1.00;;;5.20;99.90;;;;;;5030316;28;20365;-50
2023/01/16 04:56:58;;;;;;;4.03;0.97;;;5.20;99.90;;;;;;5017882;28;20211;-45
2023/01/16 04:59:25;;;;;;;2.40;0.80;;;5.20;99.90;;;;;;5029004;28;20221;-50
2023/01/16 05:01:52;;;;;;;1.10;0.70;;;5.20;99.90;;;;;;5035490;28;20213;-47
2023/01/16 05:04:20;;;;;;;7.77;1.00;;;5.20;99.90;;;;;;5043206;28;20218;-49
2023/01/16 05:06:48;;;;;;;1.13;1.00;;;5.30;99.90;;;;;;5044023;28;20206;-43
2023/01/16 05:09:16;;;;;;;2.13;0.80;;;5.30;99.90;;;;;;5043094;28;20207;-53
2023/01/16 05:11:44;;;;;;;4.30;1.00;;;5.30;99.90;;;;;;5042135;28;20207;-43
2023/01/16 05:14:11;;;;;;;4.20;0.93;;;5.30;99.90;;;;;;5012978;28;20333;-56
2023/01/16 05:16:41;;;;;;;2.77;1.00;;;5.30;99.90;;;;;;5029542;28;20306;-53
2023/01/16 05:19:08;;;;;;;2.03;0.80;;;5.30;99.90;;;;;;5027152;28;20298;-51
2023/01/16 05:21:35;;;;;;;1.93;0.87;;;5.30;99.90;;;;;;5027320;28;20191;-50
2023/01/16 05:24:02;;;;;;;3.47;0.90;;;5.30;99.90;;;;;;5031782;28;20195;-50
2023/01/16 05:26:29;;;;;;;1.87;1.03;;;5.30;99.90;;;;;;5040932;28;20192;-49
2023/01/16 05:28:58;;;;;;;3.30;0.90;;;5.30;99.90;;;;;;5019129;28;20237;-46
2023/01/16 05:31:25;;;;;;;2.80;0.90;;;5.30;99.90;;;;;;5027528;28;20195;-52
2023/01/16 05:33:52;;;;;;;2.67;0.70;;;5.30;99.90;;;;;;5028590;28;20199;-50
2023/01/16 05:36:19;;;;;;;1.30;0.70;;;5.30;99.90;;;;;;5034807;28;20211;-51
2023/01/16 05:38:46;;;;;;;2.70;0.90;;;5.30;99.90;;;;;;5029263;28;20231;-51
2023/01/16 05:41:13;;;;;;;4.13;0.87;;;5.40;99.90;;;;;;5026309;28;20266;-51
2023/01/16 05:43:40;;;;;;;0.67;0.67;;;5.30;99.90;;;;;;5005402;28;20662;-54
2023/01/16 05:46:08;;;;;;;3.70;1.20;;;5.30;99.90;;;;;;5031487;28;20257;-54
2023/01/16 05:48:36;;;;;;;4.00;1.07;;;5.40;99.90;;;;;;5017649;28;20226;-54
2023/01/16 05:51:04;;;;;;;4.70;0.90;;;5.40;99.90;;;;;;5031272;28;20203;-51
2023/01/16 05:53:30;;;;;;;1.97;0.77;;;5.30;99.90;;;;;;5035327;28;20202;-54
2023/01/16 05:55:58;;;;;;;1.90;0.70;;;5.40;99.90;;;;;;5028407;28;20216;-54
2023/01/16 05:58:25;;;;;;;1.17;0.60;;;5.40;99.90;;;;;;5021696;28;20226;-44
2023/01/16 06:00:52;;;;;;;2.00;0.70;;;5.40;99.90;;;;;;5031990;28;20219;-51
2023/01/16 06:03:21;;;;;;;1.63;0.80;;;5.40;99.90;;;;;;5024088;28;20211;-47
2023/01/16 06:05:48;;;;;;;2.27;0.83;;;5.40;99.90;;;;;;5025618;28;20200;-51
2023/01/16 06:08:15;;;;;;;1.80;0.83;;;5.30;99.90;;;;;;5037666;28;20835;-43
2023/01/16 06:10:44;;;;;;;2.73;1.00;;;5.40;99.90;;;;;;5038382;28;20214;-52
2023/01/16 06:13:10;;;;;;;2.97;0.60;;;5.30;99.90;;;;;;5036323;28;20199;-46
2023/01/16 06:15:38;;;;;;;1.33;0.60;;;5.30;99.90;;;;;;5024358;28;20294;-54
2023/01/16 06:18:05;;;;;;;1.03;0.60;;;5.30;99.90;;;;;;5033174;28;20609;-51
2023/01/16 06:20:33;;;;;;;3.00;0.90;;;5.30;99.90;;;;;;5018677;28;20206;-51
2023/01/16 06:23:00;;;;;;;2.77;0.83;;;5.30;99.90;;;;;;5034961;28;20207;-56
2023/01/16 06:25:27;;;;;;;1.40;0.80;;;5.30;99.90;;;;;;5035675;28;20257;-47
2023/01/16 06:27:54;;;;;;;3.90;0.60;;;5.20;99.90;;;;;;5039998;28;20206;-56
2023/01/16 06:30:21;;;;;;;2.30;0.70;;;5.20;99.90;;;;;;5020917;28;20199;-50
2023/01/16 06:32:49;;;;;;;1.77;1.27;;;5.20;99.90;;;;;;5037555;28;20187;-54
2023/01/16 06:35:17;;;;;;;2.20;1.53;;;5.10;99.90;;;;;;5024526;28;20211;-45
2023/01/16 06:37:45;;;;;;;3.70;0.73;;;5.20;99.90;;;;;;5023981;28;20952;-53
2023/01/16 06:40:12;;;;;;;2.77;0.60;;;5.10;99.90;;;;;;5032135;28;20231;-47
2023/01/16 06:42:39;;;;;;;2.07;0.70;;;5.10;99.90;;;;;;5035815;28;20191;-48
2023/01/16 06:45:07;;;;;;;3.17;1.10;;;5.10;99.90;;;;;;5016266;28;20208;-56
2023/01/16 06:47:34;;;;;;;2.27;0.77;;;5.10;99.90;;;;;;5034498;28;20282;-54
2023/01/16 06:50:00;;;;;;;2.13;0.80;;;5.10;99.90;;;;;;5032069;28;20222;-58
2023/01/16 06:52:30;;;;;;;2.90;0.80;;;5.10;99.90;;;;;;5029327;28;20210;-52
2023/01/16 06:54:58;;;;;;;3.17;1.00;;;5.10;99.90;;;;;;5044431;28;20204;-56
2023/01/16 06:57:25;;;;;;;2.70;0.70;;;5.10;99.90;;;;;;5032690;28;20231;-48
2023/01/16 06:59:52;;;;;;;3.60;0.90;;;5.10;99.90;;;;;;5035875;28;20714;-49
2023/01/16 07:02:19;;;;;;;2.50;0.90;;;5.10;99.90;;;;;;5027072;28;20213;-49
2023/01/16 07:04:45;;;;;;;3.40;1.43;;;5.10;99.90;;;;;;5024995;28;20210;-49
2023/01/16 07:07:13;;;;;;;4.27;0.87;;;5.10;99.90;;;;;;5034260;28;20203;-48
2023/01/16 07:09:39;;;;;;;2.13;0.70;;;5.00;99.90;;;;;;5032701;28;20203;-56
2023/01/16 07:12:07;;;;;;;2.33;0.53;;;5.10;99.90;;;;;;5031207;28;20211;-47
2023/01/16 07:22:49;;;;;;;2.67;0.93;;;5.00;99.90;;;;;;5024748;28;20219;-57
2023/01/16 07:25:19;;;;;;;2.83;0.73;;;5.00;99.90;;;;;;5024515;28;20223;-45
2023/01/16 07:27:49;;;;;;;4.47;0.70;;;5.00;99.90;;;;;;5032433;28;20194;-56
2023/01/16 07:30:17;;;;;;;3.77;0.63;;;5.00;99.90;;;;;;5022011;28;20713;-43
2023/01/16 07:32:44;;;;;;;1.53;0.80;;;5.00;99.90;;;;;;5027411;28;20204;-57
2023/01/16 07:35:11;;;;;;;1.00;0.53;;;5.00;99.90;;;;;;5031384;28;20235;-49
2023/01/16 07:37:39;;;;;;;2.67;0.70;;;5.00;99.90;;;;;;5022490;28;20975;-55
2023/01/16 07:40:07;;;;;;;2.57;0.70;;;4.90;99.90;;;;;;5025864;28;20601;-46
2023/01/16 07:42:34;;;;;;;3.70;0.80;;;4.90;99.90;;;;;;5033320;28;20329;-55
2023/01/16 07:45:03;;;;;;;1.90;0.67;;;4.90;99.90;;;;;;5030066;28;20223;-45
2023/01/16 07:47:29;;;;;;;1.97;0.67;;;4.90;99.90;;;;;;5011502;28;20223;-54
2023/01/16 07:49:58;;;;;;;3.93;0.57;;;4.90;99.90;;;;;;5030293;28;20590;-55
2023/01/16 07:52:25;;;;;;;1.53;0.60;;;4.90;99.90;;;;;;5024481;28;20200;-52
2023/01/16 07:54:51;;;;;;;1.60;0.50;;;4.90;99.90;;;;;;5029108;28;20273;-54
2023/01/16 07:57:18;;;;;;;1.10;0.70;;;4.90;99.90;;;;;;5030822;28;20230;-46
2023/01/16 07:59:45;;;;;;;1.20;0.77;;;4.80;99.90;;;;;;5030851;28;20216;-42
2023/01/16 08:02:13;;;;;;;2.77;0.80;;;4.80;99.90;;;;;;5006359;28;20208;-52
2023/01/16 08:04:40;;;;;;;3.37;0.80;;;4.80;99.90;;;;;;5036492;28;20818;-52
2023/01/16 08:07:07;;;;;;;2.47;0.77;;;4.80;99.90;;;;;;5024284;28;20207;-58
2023/01/16 08:09:34;;;;;;;3.73;1.23;;;4.80;99.90;;;;;;5038801;28;20304;-52
2023/01/16 08:12:00;;;;;;;4.03;1.63;;;4.80;99.90;;;;;;5030306;28;20196;-54
2023/01/16 08:14:27;;;;;;;2.20;0.80;;;4.80;99.90;;;;;;5041359;28;20294;-50
2023/01/16 08:16:54;;;;;;;1.50;0.73;;;4.80;99.90;;;;;;5025408;28;21167;-46
2023/01/16 08:19:22;;;;;;;2.70;1.00;;;4.80;99.90;;;;;;5022389;28;20219;-48
2023/01/16 08:22:11;;;;;;;1.63;0.80;;;4.80;99.90;;;;;;5028473;28;20213;-58
2023/01/16 08:24:37;;;;;;;2.90;0.77;;;4.80;99.90;;;;;;5041558;28;20199;-54
2023/01/16 08:27:04;;;;;;;1.07;0.70;;;4.80;99.90;;;;;;5028199;28;20192;-51
2023/01/16 08:29:31;;;;;;;0.73;0.70;;;4.80;99.90;;;;;;5032106;28;20258;-56
2023/01/16 08:31:57;;;;;;;1.57;0.60;;;4.80;99.90;;;;;;5032310;28;20191;-45
2023/01/16 08:34:26;;;;;;;3.20;0.83;;;4.80;99.90;;;;;;5021248;28;20212;-58
2023/01/16 08:36:53;;;;;;;3.53;0.77;;;4.90;99.90;;;;;;5035397;28;20713;-50
2023/01/16 08:39:19;;;;;;;2.40;0.80;;;4.90;99.90;;;;;;5038032;28;20215;-50
2023/01/16 08:52:57;;;;;;;3.57;0.70;;;5.10;99.90;;;;;;5027195;28;20559;-45
2023/01/16 08:55:23;;;;;;;3.57;0.73;;;5.10;99.90;;;;;;5040564;28;20215;-51
2023/01/16 08:57:51;;;;;;;1.47;0.77;;;5.10;99.90;;;;;;5033422;28;20345;-44
2023/01/16 09:00:19;;;;;;;3.07;1.00;;;5.10;99.90;;;;;;5041820;28;20891;-56
2023/01/16 09:02:46;;;;;;;1.17;0.70;;;5.10;99.90;;;;;;5025667;28;20271;-49
2023/01/16 09:05:14;;;;;;;2.60;0.70;;;5.10;99.90;;;;;;5024708;28;20324;-49
2023/01/16 09:07:42;;;;;;;0.93;0.60;;;5.10;99.90;;;;;;5041566;28;20271;-49
2023/01/16 09:10:11;;;;;;;1.07;0.77;;;5.10;99.90;;;;;;5030522;28;20915;-56
2023/01/16 09:15:23;;;;;;;3.13;0.70;;;5.20;99.90;;;;;;5042104;28;20195;-53
2023/01/16 09:17:50;;;;;;;3.47;0.70;;;5.20;99.90;;;;;;5030438;28;20690;-45
2023/01/16 09:20:18;;;;;;;4.20;1.17;;;5.20;99.90;;;;;;5023900;28;20207;-53
2023/01/16 09:22:45;;;;;;;1.60;0.63;;;5.20;99.90;;;;;;5034959;28;20547;-48
2023/01/16 09:25:12;;;;;;;0.90;0.60;;;5.20;99.90;;;;;;5032640;28;20192;-51
2023/01/16 09:27:39;;;;;;;1.10;0.80;;;5.20;99.90;;;;;;5040865;28;20286;-53
2023/01/16 09:30:07;;;;;;;1.80;0.67;;;5.10;99.90;;;;;;5033750;28;20269;-53
2023/01/16 09:32:34;;;;;;;1.70;0.80;;;5.10;99.90;;;;;;5036524;28;20287;-49
2023/01/16 09:35:00;;;;;;;2.07;0.93;;;5.10;99.90;;;;;;5011182;28;20298;-46
2023/01/16 09:37:29;;;;;;;2.13;0.83;;;5.10;99.90;;;;;;5034249;28;20306;-49
2023/01/16 09:39:55;;;;;;;1.33;0.53;;;5.10;99.90;;;;;;5030654;28;20230;-45
2023/01/16 09:45:25;;;;;;;2.07;0.50;;;5.10;99.90;;;;;;5030757;28;20682;-53
2023/01/16 09:47:56;;;;;;;3.07;1.00;;;5.00;99.90;;;;;;5029076;28;20750;-48
2023/01/16 09:50:31;;;;;;;2.37;0.57;;;5.00;99.90;;;;;;5020826;28;20204;-50
2023/01/16 09:58:40;;;;;;;2.00;0.53;;;5.00;99.90;;;;;;5037985;28;20247;-48
2023/01/16 10:01:09;;;;;;;1.03;0.60;;;5.00;99.90;;;;;;5030982;28;20207;-55
2023/01/16 10:03:42;;;;;;;1.30;0.60;;;5.00;99.90;;;;;;5037089;28;20199;-50
2023/01/16 10:06:17;;;;;;;3.03;0.70;;;5.00;99.90;;;;;;5019639;28;22038;-46
2023/01/16 10:08:58;;;;;;;3.50;0.97;;;5.00;99.90;;;;;;5038614;28;20215;-46
2023/01/16 10:11:30;;;;;;;0.53;0.50;;;5.10;99.90;;;;;;5032865;28;20210;-52
2023/01/16 10:14:11;;;;;;;1.43;0.63;;;5.10;99.90;;;;;;5035829;28;20270;-44
2023/01/16 10:16:51;;;;;;;1.93;0.90;;;5.10;99.90;;;;;;5024666;28;20568;-50
2023/01/16 10:19:29;;;;;;;2.90;0.53;;;5.20;99.90;;;;;;5038056;28;21052;-48
2023/01/16 10:22:06;;;;;;;3.10;0.63;;;5.20;99.90;;;;;;5019225;28;21015;-45
2023/01/16 10:24:44;;;;;;;3.13;0.63;;;5.30;99.90;;;;;;5041907;28;20567;-49
2023/01/16 10:27:19;;;;;;;1.03;0.60;;;5.30;99.90;;;;;;5027743;28;20196;-49
2023/01/16 10:29:51;;;;;;;2.27;0.87;;;5.40;99.90;;;;;;5038264;28;20940;-47
2023/01/16 10:32:24;;;;;;;1.63;0.63;;;5.40;99.90;;;;;;5030763;28;20631;-48
2023/01/16 10:35:00;;;;;;;3.03;0.90;;;5.50;99.90;;;;;;5038213;28;20199;-46
2023/01/16 10:37:27;;;;;;;1.27;0.80;;;5.50;99.90;;;;;;5022517;28;20559;-51
2023/01/16 10:39:56;;;;;;;1.70;0.87;;;5.60;99.90;;;;;;5034562;28;20274;-46
2023/01/16 10:50:44;;;;;;;2.50;0.67;;;5.70;99.90;;;;;;5032926;28;20874;-48
2023/01/16 10:53:12;;;;;;;1.23;0.50;;;5.80;99.90;;;;;;5019430;28;20207;-56
2023/01/16 10:55:44;;;;;;;3.37;0.77;;;5.70;99.90;;;;;;5038518;28;20200;-54
2023/01/16 10:58:23;;;;;;;2.20;0.60;;;5.70;99.90;;;;;;5035027;28;21003;-54
2023/01/16 11:00:53;;;;;;;2.03;0.80;;;5.80;99.90;;;;;;5029918;28;20257;-47
2023/01/16 11:03:27;;;;;;;1.27;0.77;;;5.80;99.90;;;;;;5034548;28;20666;-56
2023/01/16 11:06:07;;;;;;;0.80;0.60;;;5.80;99.90;;;;;;5035950;28;20248;-44
2023/01/16 11:08:35;;;;;;;2.27;0.80;;;5.90;99.90;;;;;;5015458;28;20868;-53
2023/01/16 11:11:03;;;;;;;2.70;1.00;;;5.90;99.90;;;;;;5036909;28;20245;-56
2023/01/16 11:19:17;;;;;;;2.77;0.90;;;6.00;99.90;;;;;;5025555;28;20943;-53
2023/01/16 11:21:48;;;;;;;0.63;0.63;;;5.90;99.90;;;;;;5039869;28;20237;-46
2023/01/16 11:24:18;;;;;;;2.00;0.90;;;6.00;99.90;;;;;;5018110;28;20215;-47
2023/01/16 11:26:50;;;;;;;3.40;0.73;;;6.00;99.90;;;;;;5038827;28;20195;-47
2023/01/16 11:29:19;;;;;;;0.87;0.73;;;6.00;99.90;;;;;;5035642;28;20821;-48
2023/01/16 11:31:49;;;;;;;2.83;0.80;;;6.00;99.90;;;;;;5030076;28;20210;-48
2023/01/16 11:34:16;;;;;;;2.13;0.77;;;6.00;99.90;;;;;;5028271;28;20200;-54
2023/01/16 11:37:07;;;;;;;0.60;0.50;;;6.00;99.90;;;;;;5027435;28;20369;-54
2023/01/16 11:39:35;;;;;;;2.50;0.60;;;6.00;99.90;;;;;;5034223;28;20235;-51
2023/01/16 11:46:02;;;;;;;2.93;0.87;;;6.00;99.90;;;;;;5019092;28;20198;-51
2023/01/16 11:47:54;;;;;;;2.43;0.87;;;6.00;99.90;;;;;;5041294;28;20209;-42
2023/01/16 11:50:28;;;;;;;2.67;0.70;;;6.00;99.90;;;;;;5042736;28;20210;-48
2023/01/16 11:52:55;;;;;;;1.00;0.80;;;6.00;99.90;;;;;;5035479;28;20680;-44
2023/01/16 11:55:26;;;;;;;3.33;0.80;;;6.10;99.90;;;;;;5024972;28;20203;-45
2023/01/16 11:58:03;;;;;;;1.43;0.50;;;6.10;99.90;;;;;;5034561;28;20581;-45
2023/01/16 12:00:40;;;;;;;1.13;0.60;;;6.10;99.90;;;;;;5039987;28;20281;-50
2023/01/16 12:03:46;;;;;;;2.03;0.60;;;6.20;99.90;;;;;;5017595;28;20289;-50
2023/01/16 12:06:27;;;;;;;2.83;0.73;;;6.20;99.90;;;;;;5033535;28;20196;-50
2023/01/16 12:09:23;;;;;;;1.77;0.70;;;6.20;99.90;;;;;;5033768;28;21172;-53
2023/01/16 12:15:08;;;;;;;0.97;0.60;;;6.30;99.90;;;;;;5025710;28;20277;-46
2023/01/16 12:17:56;;;;;;;3.03;0.93;;;6.30;99.90;;;;;;5030860;28;20215;-43
2023/01/16 12:20:43;;;;;;;1.63;0.80;;;6.30;99.90;;;;;;5040138;28;20568;-51
2023/01/16 12:23:26;;;;;;;1.00;0.63;;;6.30;99.90;;;;;;5039213;28;20205;-46
2023/01/16 12:26:06;;;;;;;0.63;0.60;;;6.30;99.90;;;;;;5022662;28;20200;-51
2023/01/16 12:28:43;;;;;;;1.00;0.90;;;6.40;99.90;;;;;;5018255;28;20223;-43
2023/01/16 12:31:35;;;;;;;1.40;0.60;;;6.30;99.90;;;;;;5040099;28;20676;-50
2023/01/16 12:34:16;;;;;;;1.23;0.70;;;6.30;99.90;;;;;;5032743;28;20521;-48
2023/01/16 12:36:52;;;;;;;1.30;0.90;;;6.30;99.90;;;;;;5037183;28;20219;-45
2023/01/16 12:39:25;;;;;;;1.27;0.70;;;6.30;99.90;;;;;;5037461;28;20751;-51
2023/01/16 12:45:07;;;;;;;1.50;0.50;;;6.30;99.90;;;;;;4994047;28;20694;-50
2023/01/16 12:47:52;;;;;;;3.10;0.70;;;6.30;99.90;;;;;;5035437;28;20215;-47
2023/01/16 12:50:35;;;;;;;0.90;0.60;;;6.30;99.90;;;;;;5036930;28;20199;-53
2023/01/16 12:53:17;;;;;;;1.63;0.50;;;6.30;99.90;;;;;;5032974;28;20480;-49
2023/01/16 12:55:50;;;;;;;2.33;0.57;;;6.30;99.90;;;;;;5039994;28;20385;-47
2023/01/16 12:58:21;;;;;;;2.50;0.60;;;6.30;99.90;;;;;;5036144;28;20230;-55
2023/01/16 13:00:52;;;;;;;0.83;0.30;;;6.30;99.90;;;;;;5018376;28;20220;-54
2023/01/16 13:03:27;;;;;;;1.33;0.70;;;6.20;99.90;;;;;;5041244;28;20211;-53
2023/01/16 13:05:57;;;;;;;2.33;0.60;;;6.20;99.90;;;;;;5024530;28;20294;-52
2023/01/16 13:08:27;;;;;;;2.10;0.60;;;6.20;99.90;;;;;;5033690;28;20211;-54
2023/01/16 13:13:50;;;;;;;2.10;0.50;;;6.20;99.90;;;;;;5032462;28;20265;-50
2023/01/16 13:16:23;;;;;;;5.23;0.97;;;6.20;99.90;;;;;;5021617;28;20195;-51
2023/01/16 13:18:55;;;;;;;3.00;0.97;;;6.20;99.90;;;;;;5029220;28;20227;-55
2023/01/16 13:21:26;;;;;;;1.57;0.60;;;6.20;99.90;;;;;;5031779;28;20654;-54
2023/01/16 13:23:58;;;;;;;0.87;0.47;;;6.20;99.90;;;;;;5030516;28;20972;-52
2023/01/16 13:26:26;;;;;;;1.40;0.63;;;6.20;99.90;;;;;;5042567;28;20214;-49
2023/01/16 13:29:00;;;;;;;2.63;0.70;;;6.20;99.90;;;;;;5037980;28;20211;-44
2023/01/16 13:31:32;;;;;;;2.93;0.50;;;6.20;99.90;;;;;;5022093;28;20203;-51
2023/01/16 13:34:05;;;;;;;1.17;0.50;;;6.20;99.90;;;;;;5030417;28;20320;-48
2023/01/16 13:37:06;;;;;;;1.00;0.60;;;6.20;99.90;;;;;;5036592;28;20682;-48
2023/01/16 13:40:05;;;;;;;0.73;0.30;;;6.20;99.90;;;;;;5037188;28;20594;-47
2023/01/16 13:42:34;;;;;;;1.03;0.47;;;6.20;99.90;;;;;;5014903;28;20269;-46
2023/01/16 13:47:53;;;;;;;1.90;0.57;;;6.20;99.90;;;;;;5014304;28;20429;-54
2023/01/16 13:50:24;;;;;;;0.90;0.40;;;6.20;99.90;;;;;;5029408;28;20208;-52
2023/01/16 13:52:55;;;;;;;0.67;0.40;;;6.10;99.90;;;;;;5039523;28;20293;-49
2023/01/16 13:55:29;;;;;;;2.30;0.50;;;6.10;99.90;;;;;;5036613;28;20203;-50
2023/01/16 13:57:57;;;;;;;1.93;0.60;;;6.10;99.90;;;;;;5026754;28;20269;-53
2023/01/16 14:00:25;;;;;;;0.77;0.50;;;6.00;99.90;;;;;;5037958;28;20191;-52
2023/01/16 14:03:18;;;;;;;2.60;0.90;;;6.00;99.90;;;;;;5017991;28;20200;-54
2023/01/16 14:05:50;;;;;;;1.90;0.60;;;6.00;99.90;;;;;;5017824;28;20605;-47
2023/01/16 14:11:29;;;;;;;1.03;0.60;;;5.90;99.90;;;;;;5028482;28;20200;-50
2023/01/16 14:17:18;;;;;;;1.53;0.87;;;5.90;99.90;;;;;;5031319;28;20617;-43
2023/01/16 14:19:54;;;;;;;2.60;0.60;;;5.90;99.90;;;;;;5026425;28;20215;-50
2023/01/16 14:25:17;;;;;;;1.97;0.50;;;5.90;99.90;;;;;;5007257;28;20203;-52
2023/01/16 14:27:48;;;;;;;4.30;0.87;;;5.90;99.90;;;;;;5028263;28;20192;-52
2023/01/16 14:30:19;;;;;;;3.00;0.63;;;5.90;99.90;;;;;;5034787;28;20317;-47